WIMM/MES METAR and TAF weather

Enter ICAO airport designator
Station Type Date Time Source
WIMM METAR 2021/09/20 05:30 UTC NOAA

WIMM 200530Z 34004KT 9999 BKN017 29/24 Q1010 NOSIG


Station Type Date Time Source
WIMM Decoded METAR 2021/09/20 05:30 UTC NOAA

Medan / Polonia, Indonesia (WIMM) 03-34N 098-41E 25M
Sep 20, 2021 - 01:30 AM EDT / 2021.09.20 0530 UTC
Wind: from the NNW (340 degrees) at 5 MPH (4 KT):0
Visibility: greater than 7 mile(s):0
Sky conditions: mostly cloudy
Temperature: 84 F (29 C)
Dew Point: 75 F (24 C)
Relative Humidity: 74%
Pressure (altimeter): 29.83 in. Hg (1010 hPa)
ob: WIMM 200530Z 34004KT 9999 BKN017 29/24 Q1010 NOSIG
cycle: 5

Station Type Date Time Source
WIMM TAF 2021/09/20 06:06 UTC NOAA

TAF WIMM 200500Z 2006/2106 36010KT 9999 SCT018
BECMG 2010/2012 VRB04KT 4000 BR FEW016CB SCT017

Example: see airport list